createdAt,value
2019-05-11T04:00:35.549Z,10.70
2019-05-11T04:05:50.905Z,10.77
2019-05-11T04:08:22.885Z,11.63
2019-05-11T04:10:52.126Z,12.47
2019-05-11T04:13:30.417Z,12.70
2019-05-11T04:15:59.434Z,12.57
2019-05-11T04:18:28.483Z,11.63
2019-05-11T04:20:57.642Z,12.00
2019-05-11T04:23:36.126Z,10.83
2019-05-11T04:26:05.201Z,12.37
2019-05-11T04:28:41.045Z,12.50
2019-05-11T04:31:24.804Z,10.80
2019-05-11T04:34:07.232Z,12.03
2019-05-11T04:36:37.039Z,10.27
2019-05-11T04:39:09.491Z,11.90
2019-05-11T04:41:47.963Z,10.93
2019-05-11T04:44:45.426Z,11.37
2019-05-11T04:47:26.640Z,11.50
2019-05-11T04:49:55.949Z,12.17
2019-05-11T04:52:37.918Z,12.67
2019-05-11T04:55:07.644Z,13.03
2019-05-11T04:57:41.532Z,12.37
2019-05-11T05:00:17.797Z,11.90
2019-05-11T05:03:07.751Z,12.33
2019-05-11T05:05:40.278Z,13.30
2019-05-11T05:08:33.383Z,12.33
2019-05-11T05:11:06.179Z,12.20
2019-05-11T05:13:49.644Z,12.27
2019-05-11T05:16:21.545Z,11.70
2019-05-11T05:18:50.676Z,13.70
2019-05-11T05:21:22.086Z,13.00
2019-05-11T05:24:00.452Z,12.73
2019-05-11T05:26:29.492Z,14.90
2019-05-11T05:28:58.479Z,13.50
2019-05-11T05:31:27.477Z,12.13
2019-05-11T05:34:05.534Z,12.20
2019-05-11T06:06:05.388Z,8.77
2019-05-11T06:08:35.678Z,8.07
2019-05-11T06:11:11.577Z,9.60
2019-05-11T06:13:52.874Z,7.00
2019-05-11T06:16:27.153Z,7.73
2019-05-11T06:18:58.291Z,6.60
2019-05-11T06:21:29.238Z,7.50
2019-05-11T06:24:08.865Z,7.07
2019-05-11T06:26:45.129Z,7.27
2019-05-11T06:29:15.781Z,6.90
2019-05-11T06:31:49.905Z,6.50
2019-05-11T06:34:28.435Z,6.53
2019-05-11T06:36:58.125Z,5.87
2019-05-11T06:39:28.627Z,6.83
2019-05-11T06:42:00.798Z,5.83
2019-05-11T06:47:15.203Z,5.90
2019-05-11T06:49:45.276Z,6.07
2019-05-11T06:52:14.884Z,5.67
2019-05-11T06:54:55.030Z,6.47
2019-05-11T06:57:24.824Z,5.97
2019-05-11T06:59:57.390Z,6.67
2019-05-11T07:02:33.700Z,6.57
2019-05-11T07:07:51.862Z,6.93
2019-05-11T07:10:21.467Z,6.40
2019-05-11T07:12:52.177Z,6.87
2019-05-11T07:15:34.891Z,6.63
2019-05-11T07:18:07.023Z,7.33
2019-05-11T07:20:49.547Z,6.60
2019-05-11T07:23:21.663Z,6.10
2019-05-11T07:25:50.840Z,5.30
2019-05-11T07:28:22.297Z,4.67
2019-05-11T07:30:51.565Z,5.47
2019-05-11T07:33:41.597Z,5.30
2019-05-11T07:36:11.589Z,4.43
2019-05-11T07:38:40.967Z,4.50
2019-05-11T07:41:10.875Z,3.77
2019-05-11T07:43:51.607Z,3.90
2019-05-11T07:46:20.853Z,3.73
2019-05-11T07:48:50.070Z,3.60
2019-05-11T07:51:22.562Z,3.83
2019-05-11T07:54:03.759Z,3.73
2019-05-11T07:56:33.269Z,3.67
2019-05-11T07:59:07.843Z,3.00
2019-05-11T08:01:38.732Z,2.60
2019-05-11T08:04:18.645Z,2.53
2019-05-11T08:06:50.593Z,2.73
2019-05-11T08:09:19.949Z,2.83
2019-05-11T08:11:50.145Z,2.70
2019-05-11T08:14:30.574Z,2.70
2019-05-11T08:16:59.754Z,2.70
2019-05-11T08:19:29.308Z,2.67
2019-05-11T08:21:58.500Z,2.37
2019-05-11T08:24:37.769Z,2.30
2019-05-11T08:27:08.395Z,2.37
2019-05-11T08:29:38.521Z,2.53
2019-05-11T08:32:08.270Z,2.53
2019-05-11T08:34:48.966Z,2.43
2019-05-11T08:37:18.912Z,2.50
2019-05-11T08:50:49.997Z,2.00
2019-05-11T08:53:19.173Z,2.10
2019-05-11T08:56:18.665Z,2.20
2019-05-11T08:58:49.193Z,1.73
2019-05-11T09:01:18.531Z,1.90
2019-05-11T09:03:50.124Z,1.83
2019-05-11T09:06:19.533Z,1.70
2019-05-11T09:08:50.377Z,1.43
2019-05-11T09:11:19.484Z,1.37
2019-05-11T09:13:52.900Z,1.87
2019-05-11T09:19:08.820Z,1.60
2019-05-11T09:21:38.578Z,1.70
2019-05-11T10:30:13.639Z,1.70
2019-05-11T10:32:45.004Z,1.63
2019-05-11T10:38:09.020Z,1.20
2019-05-11T10:40:38.824Z,1.10
2019-05-11T10:43:08.518Z,1.00
2019-05-11T10:45:48.404Z,1.77
2019-05-11T10:48:19.503Z,0.87
2019-05-11T10:50:50.353Z,1.00
2019-05-11T10:53:24.082Z,1.10
2019-05-11T10:55:59.695Z,1.33
2019-05-11T10:58:44.367Z,1.33
2019-05-11T11:01:08.797Z,1.07
2019-05-11T11:03:50.433Z,1.40
2019-05-11T11:06:28.153Z,1.00
2019-05-11T11:09:57.953Z,1.00
2019-05-11T11:12:27.975Z,1.17
2019-05-11T11:14:58.668Z,0.90
2019-05-11T11:17:28.716Z,1.13
2019-05-11T11:20:02.400Z,1.27
2019-05-11T11:22:43.628Z,1.00
2019-05-11T11:25:10.434Z,1.20
2019-05-11T11:27:42.191Z,1.10
2019-05-11T11:30:12.610Z,1.20
2019-05-11T11:32:50.666Z,1.37
2019-05-11T11:35:21.224Z,1.57
2019-05-11T11:37:50.691Z,1.20
2019-05-11T11:40:21.191Z,1.23
2019-05-11T11:43:01.119Z,1.10
2019-05-11T11:45:31.882Z,0.90
2019-05-11T11:48:04.834Z,0.82
2019-05-11T11:50:37.717Z,0.70
2019-05-11T11:53:27.850Z,0.75
2019-05-11T11:55:54.167Z,1.00
2019-05-11T11:58:24.026Z,0.90
2019-05-11T12:00:58.678Z,1.05
2019-05-11T12:03:41.083Z,1.12
2019-05-11T12:06:40.820Z,1.00
2019-05-11T12:09:32.574Z,0.70
2019-05-11T12:12:08.434Z,0.73
2019-05-11T12:15:11.221Z,0.93
2019-05-11T12:17:41.585Z,0.80
2019-05-11T12:20:12.520Z,1.20
2019-05-11T12:23:08.738Z,1.20
2019-05-11T12:26:23.387Z,1.03
2019-05-11T12:29:02.355Z,0.80
2019-05-11T12:31:38.598Z,0.97
2019-05-11T12:34:28.343Z,0.80
2019-05-11T12:37:34.295Z,0.90
2019-05-11T12:40:34.836Z,0.60
2019-05-11T12:43:41.723Z,0.30
2019-05-11T12:46:13.121Z,0.40
2019-05-11T12:48:51.372Z,0.47
2019-05-11T12:51:21.044Z,0.50
2019-05-11T12:53:53.676Z,0.50
2019-05-11T12:56:30.106Z,0.43
2019-05-11T12:59:08.690Z,0.40
2019-05-11T13:01:38.256Z,0.60
2019-05-11T13:04:08.950Z,0.47
2019-05-11T13:06:48.916Z,0.50
2019-05-11T13:09:42.648Z,0.50
2019-05-11T13:12:24.909Z,0.60
2019-05-11T13:18:19.876Z,0.60
2019-05-11T13:20:59.792Z,0.40
2019-05-11T13:23:29.007Z,0.50
2019-05-11T13:25:58.621Z,0.60
2019-05-11T13:28:37.802Z,0.70
2019-05-11T13:31:19.752Z,0.60
2019-05-11T13:33:53.432Z,0.53
2019-05-11T13:36:23.445Z,0.90
2019-05-11T13:38:58.682Z,0.73
2019-05-11T13:44:15.348Z,0.70
2019-05-11T13:46:39.525Z,1.77
2019-05-11T13:52:04.048Z,0.90
2019-05-11T13:54:37.481Z,0.50
2019-05-11T13:57:09.867Z,1.03
2019-05-11T13:59:49.860Z,2.23
2019-05-11T14:02:30.804Z,1.57
2019-05-11T14:05:02.343Z,0.80
2019-05-11T14:07:38.164Z,1.60
2019-05-11T14:10:18.454Z,1.17
2019-05-11T14:12:55.525Z,1.57
2019-05-11T14:15:31.693Z,1.13
2019-05-11T14:20:33.469Z,0.77
2019-05-11T14:23:08.868Z,0.80
2019-05-11T14:25:41.682Z,1.90
2019-05-11T14:28:08.855Z,1.17
2019-05-11T14:32:21.230Z,0.77
2019-05-11T14:33:21.710Z,0.90
2019-05-11T14:35:52.100Z,1.47
2019-05-11T14:38:25.898Z,1.80
2019-05-11T14:47:47.905Z,1.13
2019-05-11T14:50:30.674Z,0.70
2019-05-11T14:52:59.949Z,0.30
2019-05-11T14:55:30.252Z,2.07
2019-05-11T14:57:59.761Z,0.60
2019-05-11T15:00:39.764Z,3.53
2019-05-11T15:03:12.265Z,7.17
2019-05-11T15:05:50.728Z,1.10
2019-05-11T15:08:25.581Z,0.60
2019-05-11T15:10:57.558Z,1.07
2019-05-11T15:17:24.121Z,0.50
2019-05-11T15:19:59.704Z,0.30
2019-05-11T15:22:28.773Z,0.50
2019-05-11T15:25:08.029Z,0.33
2019-05-11T15:27:45.118Z,0.43
2019-05-11T15:30:22.998Z,0.63
2019-05-11T15:33:08.209Z,0.30
2019-05-11T15:38:48.130Z,0.30
2019-05-11T15:41:19.348Z,0.60
2019-05-11T15:44:01.977Z,0.40
2019-05-11T15:49:28.499Z,0.40
2019-05-11T15:53:17.768Z,0.30
2019-05-11T15:55:42.300Z,0.30
2019-05-11T16:00:09.579Z,0.57
2019-05-11T16:20:50.302Z,0.50
2019-05-11T16:23:30.591Z,0.50
2019-05-11T16:29:11.642Z,0.50
2019-05-11T16:31:42.749Z,0.43
2019-05-11T16:34:27.766Z,0.57
2019-05-11T16:37:10.114Z,0.60
2019-05-11T16:40:19.921Z,0.30
2019-05-11T16:42:56.183Z,0.67
2019-05-11T16:45:25.317Z,1.90
2019-05-11T16:48:07.935Z,1.33
2019-05-11T16:50:39.515Z,0.60
2019-05-11T16:53:08.346Z,0.53
2019-05-11T16:55:48.509Z,0.70
2019-05-11T16:58:38.067Z,0.50
2019-05-11T17:01:11.329Z,0.40
2019-05-11T17:03:39.159Z,0.30
2019-05-11T17:06:10.681Z,0.40
2019-05-11T17:11:30.717Z,0.97
2019-05-11T17:14:04.565Z,0.70
2019-05-11T17:16:51.896Z,0.57
2019-05-11T17:19:39.469Z,0.53
2019-05-11T17:21:56.264Z,0.60
2019-05-11T17:24:28.195Z,0.47
2019-05-11T17:27:13.086Z,0.60
2019-05-11T17:29:48.748Z,0.60
2019-05-11T17:35:25.334Z,0.80
2019-05-11T17:38:13.255Z,1.00
2019-05-11T17:40:48.737Z,0.50
2019-05-11T17:43:27.926Z,0.90
2019-05-11T17:46:30.971Z,1.00
2019-05-11T17:49:07.894Z,1.00
2019-05-11T17:51:51.931Z,1.00
2019-05-11T17:54:17.925Z,1.00
2019-05-11T17:56:48.413Z,1.10
2019-05-11T17:59:28.332Z,1.30
2019-05-11T18:02:00.414Z,0.97
2019-05-11T18:04:30.511Z,1.00
2019-05-11T18:07:00.450Z,0.90
2019-05-11T18:09:39.924Z,1.00
2019-05-11T18:12:13.755Z,0.90
2019-05-11T18:14:54.106Z,0.87
2019-05-11T18:20:17.642Z,1.70
2019-05-11T18:22:50.914Z,1.90
2019-05-11T18:46:55.337Z,1.63
2019-05-11T18:49:24.500Z,1.50
2019-05-11T18:51:53.470Z,1.33
2019-05-11T18:54:22.464Z,1.27
2019-05-11T18:56:51.484Z,1.40
2019-05-11T18:59:32.622Z,1.53
2019-05-11T19:02:11.680Z,1.20
2019-05-11T19:04:43.558Z,1.40
2019-05-11T19:07:16.867Z,1.20
2019-05-11T19:09:52.627Z,1.50
2019-05-11T19:12:21.831Z,1.80
2019-05-11T19:14:51.561Z,1.60
2019-05-11T19:17:20.649Z,1.80
2019-05-11T19:20:13.723Z,1.50
2019-05-11T19:22:43.066Z,1.80
2019-05-11T19:25:12.292Z,2.17
2019-05-11T19:27:42.565Z,1.97
2019-05-11T19:30:21.003Z,2.03
2019-05-11T19:32:52.066Z,1.73
2019-05-11T19:35:21.602Z,2.03
2019-05-11T19:37:50.926Z,2.20
2019-05-11T19:40:29.454Z,2.30
2019-05-11T19:43:18.585Z,2.50
2019-05-11T19:45:49.869Z,2.23
2019-05-11T19:48:38.304Z,1.83
2019-05-11T19:51:11.328Z,1.97
2019-05-11T19:53:38.749Z,1.80
2019-05-11T19:56:08.423Z,1.97
2019-05-11T20:01:21.629Z,1.63
2019-05-11T20:03:52.533Z,1.70
2019-05-11T20:06:22.070Z,1.77
2019-05-11T20:12:44.028Z,3.60
2019-05-11T20:15:24.365Z,1.90
2019-05-11T20:17:53.771Z,2.17
2019-05-11T20:20:23.166Z,1.97
2019-05-11T20:22:55.199Z,1.97
2019-05-11T20:25:28.836Z,1.70
2019-05-11T20:28:05.302Z,1.80
2019-05-11T20:30:45.310Z,1.90
2019-05-11T20:33:15.738Z,1.63
2019-05-11T20:50:57.681Z,1.27
2019-05-11T20:53:38.561Z,1.10
2019-05-11T20:57:01.051Z,1.00
2019-05-11T20:59:39.585Z,0.90
2019-05-11T21:02:09.394Z,1.03
2019-05-11T21:05:36.955Z,0.90
2019-05-11T21:08:08.534Z,1.00
2019-05-11T21:10:59.201Z,1.10
2019-05-11T21:13:28.384Z,1.30
2019-05-11T21:15:59.264Z,1.10
2019-05-11T21:18:28.907Z,1.40
2019-05-11T21:21:13.523Z,1.60
2019-05-11T21:23:44.607Z,1.10
2019-05-11T21:26:15.798Z,1.60
2019-05-11T21:28:49.328Z,1.47
2019-05-11T21:31:31.125Z,1.53
2019-05-11T21:34:12.533Z,1.53
2019-05-11T21:36:39.938Z,1.57
2019-05-11T21:39:22.772Z,2.07
2019-05-11T21:41:58.261Z,1.80
2019-05-11T21:44:29.134Z,2.00
2019-05-11T21:47:03.963Z,2.03
2019-05-11T21:49:48.600Z,1.97
2019-05-11T21:52:18.225Z,2.47
2019-05-11T21:54:49.091Z,2.13
2019-05-11T21:57:29.720Z,1.90
2019-05-11T22:00:09.452Z,2.20
2019-05-11T22:02:42.930Z,2.10
2019-05-11T22:05:15.413Z,2.10
2019-05-11T22:07:48.815Z,2.13
2019-05-11T22:10:28.121Z,2.70
2019-05-11T22:12:56.509Z,2.70
2019-05-11T22:15:28.337Z,2.40
2019-05-11T22:18:28.203Z,2.87
2019-05-11T22:20:48.488Z,2.90
2019-05-11T22:23:17.766Z,2.33
2019-05-11T22:25:47.620Z,2.90
2019-05-11T22:28:28.484Z,2.00
2019-05-11T22:30:58.831Z,2.30
2019-05-11T22:33:28.383Z,2.43
2019-05-11T22:35:58.983Z,2.50
2019-05-11T22:38:38.666Z,2.60
2019-05-11T22:41:09.055Z,2.60
2019-05-11T22:43:38.837Z,2.30
2019-05-11T22:46:10.783Z,2.07
2019-05-11T22:51:28.755Z,2.33
2019-05-11T22:53:59.188Z,2.10
2019-05-11T22:56:28.606Z,2.23
2019-05-11T22:59:08.287Z,1.93
2019-05-11T23:01:38.098Z,2.10
2019-05-11T23:04:07.338Z,2.03
2019-05-11T23:06:40.333Z,2.30
2019-05-11T23:09:21.833Z,2.10
2019-05-11T23:11:50.990Z,2.10
2019-05-11T23:14:20.069Z,2.20
2019-05-11T23:16:50.669Z,2.10
2019-05-11T23:19:29.140Z,2.07
2019-05-11T23:21:58.844Z,1.93
2019-05-11T23:24:28.805Z,2.50
2019-05-11T23:27:01.343Z,2.37
2019-05-11T23:29:44.345Z,2.23
2019-05-11T23:32:13.934Z,2.10
2019-05-11T23:34:42.975Z,2.33
2019-05-11T23:37:12.038Z,2.27
2019-05-11T23:39:52.517Z,2.53
2019-05-11T23:42:21.806Z,2.30
2019-05-11T23:44:50.682Z,2.23
2019-05-11T23:47:21.805Z,2.30
2019-05-11T23:50:00.459Z,2.20
2019-05-11T23:52:29.635Z,1.90
2019-05-11T23:54:58.970Z,2.17
2019-05-11T23:57:28.143Z,2.67
